| time (UTC) | temp F | wind direction | speed MPH | gust MPH | rain 1hr in | rain 24hr in | rain mn in | humidity % | barometer mb |
| 20260510000307 | 44 | 63 | 1.0 | 3.0 | 0.02 | 0.22 | 0.22 | 79 | 1012.9 |
| 20260509235808 | 44 | 64 | 1.0 | 2.0 | 0.02 | 0.22 | 0.22 | 79 | 1013.0 |
| 20260509235308 | 44 | 64 | 0.0 | 2.0 | 0.02 | 0.22 | 0.22 | 79 | 1013.0 |
| 20260509234806 | 44 | 64 | 0.0 | 2.0 | 0.02 | 0.22 | 0.22 | 79 | 1013.1 |
| 20260509234308 | 44 | 64 | 0.0 | 2.0 | 0.02 | 0.22 | 0.22 | 79 | 1013.1 |
| 20260509233808 | 44 | 64 | 0.0 | 1.0 | 0.03 | 0.22 | 0.22 | 79 | 1013.1 |
| 20260509233308 | 44 | 64 | 0.0 | 1.0 | 0.03 | 0.22 | 0.22 | 79 | 1013.2 |
| 20260509232807 | 44 | 64 | 0.0 | 0.0 | 0.03 | 0.22 | 0.22 | 79 | 1013.3 |
| 20260509232532 | 44 | 64 | 0.0 | 0.0 | 0.03 | 0.22 | 0.22 | 79 | 1013.3 |
| 20260509231807 | 44 | 64 | 0.0 | 0.0 | 0.02 | 0.21 | 0.22 | 79 | 1013.2 |
| 20260509231359 | 44 | 64 | 0.0 | 0.0 | 0.02 | 0.21 | 0.21 | 79 | 1013.2 |
| 20260509230301 | 44 | 64 | 0.0 | 1.0 | 0.02 | 0.20 | 0.21 | 78 | 1013.3 |
| 20260509225755 | 44 | 64 | 0.0 | 1.0 | 0.03 | 0.20 | 0.20 | 78 | 1013.3 |
| 20260509225249 | 44 | 64 | 0.0 | 0.0 | 0.03 | 0.20 | 0.20 | 78 | 1013.5 |
| 20260509224743 | 44 | 64 | 0.0 | 1.0 | 0.04 | 0.20 | 0.20 | 78 | 1013.5 |
| 20260509224505 | 44 | 64 | 0.0 | 1.0 | 0.04 | 0.20 | 0.20 | 77 | 1013.4 |
| 20260509223732 | 44 | 64 | 0.0 | 2.0 | 0.04 | 0.19 | 0.19 | 77 | 1013.3 |
| 20260509223225 | 44 | 64 | 0.0 | 2.0 | 0.04 | 0.19 | 0.19 | 77 | 1013.3 |
| 20260509222719 | 44 | 64 | 0.0 | 2.0 | 0.05 | 0.19 | 0.19 | 77 | 1013.3 |
| 20260509222213 | 44 | 64 | 0.0 | 3.0 | 0.05 | 0.19 | 0.19 | 77 | 1013.3 |
| 20260509221927 | 44 | 64 | 1.0 | 3.0 | 0.05 | 0.19 | 0.19 | 77 | 1013.3 |
| 20260509221201 | 44 | 60 | 1.0 | 2.0 | 0.05 | 0.19 | 0.19 | 77 | 1013.4 |
| 20260509220655 | 44 | 60 | 0.0 | 2.0 | 0.04 | 0.18 | 0.18 | 77 | 1013.6 |
| 20260509220150 | 44 | 60 | 1.0 | 3.0 | 0.04 | 0.18 | 0.18 | 76 | 1013.6 |
| 20260509215643 | 44 | 60 | 1.0 | 3.0 | 0.04 | 0.17 | 0.17 | 76 | 1013.7 |
| 20260509215357 | 44 | 136 | 1.0 | 3.0 | 0.03 | 0.16 | 0.17 | 76 | 1013.6 |
| 20260509214631 | 45 | 138 | 1.0 | 3.0 | 0.03 | 0.16 | 0.16 | 76 | 1013.7 |
| 20260509214125 | 45 | 221 | 0.0 | 3.0 | 0.03 | 0.16 | 0.16 | 76 | 1013.9 |
| 20260509213619 | 45 | 227 | 1.0 | 3.0 | 0.02 | 0.15 | 0.15 | 76 | 1013.9 |
| 20260509213113 | 45 | 154 | 1.0 | 3.0 | 0.02 | 0.15 | 0.15 | 76 | 1013.8 |
| 20260509212607 | 45 | 97 | 1.0 | 2.0 | 0.01 | 0.14 | 0.14 | 76 | 1013.7 |
| 20260509212324 | 45 | 83 | 1.0 | 3.0 | 0.01 | 0.14 | 0.14 | 75 | 1013.6 |
| 20260509211555 | 45 | 83 | 1.0 | 3.0 | 0.02 | 0.14 | 0.14 | 75 | 1013.6 |
| 20260509211049 | 45 | 150 | 1.0 | 2.0 | 0.02 | 0.14 | 0.14 | 76 | 1013.6 |
| 20260509210543 | 45 | 127 | 0.0 | 2.0 | 0.02 | 0.14 | 0.14 | 75 | 1013.3 |
| 20260509210037 | 45 | 127 | 0.0 | 2.0 | 0.03 | 0.14 | 0.14 | 75 | 1013.1 |
| 20260509205531 | 45 | 127 | 0.0 | 3.0 | 0.02 | 0.13 | 0.13 | 75 | 1013.5 |
| 20260509205026 | 45 | 127 | 1.0 | 3.0 | 0.03 | 0.13 | 0.13 | 75 | 1013.7 |
| 20260509204519 | 45 | 117 | 1.0 | 3.0 | 0.03 | 0.13 | 0.13 | 75 | 1013.7 |
| 20260509204454 | 45 | 104 | 1.0 | 3.0 | 0.04 | 0.13 | 0.13 | 74 | 1013.5 |
| 20260509203507 | 45 | 101 | 0.0 | 2.0 | 0.05 | 0.13 | 0.13 | 74 | 1013.6 |
| 20260509203001 | 45 | 95 | 0.0 | 2.0 | 0.05 | 0.13 | 0.13 | 74 | 1013.5 |
| 20260509202454 | 45 | 215 | 0.0 | 0.0 | 0.06 | 0.13 | 0.13 | 74 | 1013.8 |
| 20260509201949 | 45 | 215 | 0.0 | 0.0 | 0.06 | 0.12 | 0.12 | 74 | 1013.9 |
| 20260509201443 | 45 | 215 | 0.0 | 0.0 | 0.06 | 0.12 | 0.12 | 74 | 1014.0 |
| 20260509201158 | 45 | 127 | 0.0 | 0.0 | 0.07 | 0.12 | 0.12 | 74 | 1014.1 |
| 20260509200431 | 45 | 117 | 0.0 | 0.0 | 0.07 | 0.12 | 0.12 | 74 | 1014.2 |
| 20260509195925 | 45 | 117 | 0.0 | 0.0 | 0.07 | 0.11 | 0.11 | 72 | 1014.2 |
| 20260509195419 | 45 | 117 | 0.0 | 0.0 | 0.07 | 0.11 | 0.11 | 72 | 1014.4 |
| 20260509194913 | 45 | 184 | 0.0 | 0.0 | 0.06 | 0.10 | 0.10 | 72 | 1014.3 |
| 20260509194407 | 45 | 184 | 0.0 | 1.0 | 0.07 | 0.10 | 0.10 | 71 | 1014.4 |
| 20260509194127 | 45 | 184 | 0.0 | 1.0 | 0.06 | 0.09 | 0.09 | 71 | 1014.4 |
| 20260509193355 | 45 | 147 | 0.0 | 0.0 | 0.06 | 0.08 | 0.08 | 70 | 1014.4 |
| 20260509192849 | 45 | 147 | 0.0 | 0.0 | 0.06 | 0.08 | 0.08 | 69 | 1014.4 |
| 20260509192610 | 45 | 147 | 0.0 | 1.0 | 0.05 | 0.07 | 0.07 | 68 | 1014.4 |
| 20260509191837 | 45 | 147 | 0.0 | 1.0 | 0.04 | 0.06 | 0.06 | 68 | 1014.4 |
| 20260509191331 | 45 | 128 | 0.0 | 0.0 | 0.05 | 0.06 | 0.06 | 67 | 1014.4 |
| 20260509190825 | 46 | 128 | 0.0 | 0.0 | 0.04 | 0.05 | 0.05 | 67 | 1014.5 |
| 20260509190320 | 46 | 103 | 0.0 | 0.0 | 0.05 | 0.05 | 0.05 | 67 | 1014.6 |
| 20260509185814 | 46 | 146 | 0.0 | 0.0 | 0.04 | 0.04 | 0.04 | 67 | 1014.6 |
| 20260509185307 | 46 | 142 | 0.0 | 0.0 | 0.04 | 0.04 | 0.04 | 67 | 1014.5 |
| 20260509184801 | 47 | 142 | 0.0 | 0.0 | 0.04 | 0.04 | 0.04 | 67 | 1014.6 |
| 20260509184255 | 47 | 101 | 0.0 | 0.0 | 0.03 | 0.03 | 0.03 | 67 | 1014.7 |
| 20260509183749 | 47 | 196 | 0.0 | 0.0 | 0.03 | 0.03 | 0.03 | 67 | 1014.7 |
| 20260509183243 | 47 | 196 | 0.0 | 0.0 | 0.02 | 0.02 | 0.02 | 66 | 1014.7 |
| 20260509183004 | 47 | 196 | 0.0 | 0.0 | 0.02 | 0.02 | 0.02 | 67 | 1014.8 |
| 20260509182230 | 47 | 196 | 0.0 | 0.0 | 0.02 | 0.02 | 0.02 | 66 | 1014.7 |
| 20260509181725 | 47 | 196 | 0.0 | 0.0 | 0.01 | 0.01 | 0.02 | 67 | 1014.7 |
| 20260509181219 | 48 | 196 | 0.0 | 0.0 | 0.01 | 0.01 | 0.01 | 66 | 1014.7 |
| 20260509180713 | 48 | 196 | 0.0 | 0.0 | 0.01 | 0.01 | 0.01 | 67 | 1014.7 |
| 20260509180207 | 48 | 196 | 0.0 | 0.0 | 0.00 | 0.00 | 0.00 | 66 | 1014.7 |
| 20260509175701 | 49 | 196 | 0.0 | 0.0 | 0.00 | 0.00 | 0.00 | 66 | 1014.8 |
| 20260509175155 | 49 | 196 | 0.0 | 0.0 | 0.00 | 0.00 | 0.00 | 66 | 1014.7 |
| 20260509174649 | 49 | 196 | 0.0 | 0.0 | 0.00 | 0.00 | 0.00 | 66 | 1014.6 |
| 20260509174143 | 49 | 196 | 0.0 | 0.0 | 0.00 | 0.00 | 0.00 | 65 | 1014.7 |
| 20260509173857 | 49 | 196 | 0.0 | 0.0 | 0.00 | 0.00 | 0.00 | 64 | 1014.7 |
| 20260509173131 | 50 | 196 | 0.0 | 0.0 | 0.00 | 0.00 | 0.00 | 63 | 1014.6 |
| 20260509172625 | 50 | 196 | 0.0 | 0.0 | 0.00 | 0.00 | 0.00 | 63 | 1014.6 |
| 20260509172119 | 50 | 228 | 0.0 | 0.0 | 0.00 | 0.00 | 0.00 | 63 | 1014.6 |
| 20260509171705 | 50 | 227 | 0.0 | 0.0 | 0.00 | 0.00 | 0.00 | 63 | 1014.5 |
| 20260509170610 | 51 | 227 | 0.0 | 0.0 | 0.00 | 0.00 | 0.00 | 60 | 1014.6 |
| 20260509170110 | 51 | 227 | 0.0 | 0.0 | 0.00 | 0.00 | 0.00 | 58 | 1014.6 |
| 20260509165611 | 51 | 227 | 0.0 | 0.0 | 0.00 | 0.00 | 0.00 | 55 | 1014.5 |
| 20260509165108 | 52 | 201 | 0.0 | 0.0 | 0.00 | 0.00 | 0.00 | 54 | 1014.6 |
| 20260509164607 | 53 | 231 | 0.0 | 0.0 | 0.00 | 0.00 | 0.00 | 51 | 1014.6 |
| 20260509164104 | 53 | 190 | 0.0 | 0.0 | 0.00 | 0.00 | 0.00 | 49 | 1014.7 |
| 20260509163821 | 53 | 326 | 0.0 | 0.0 | 0.00 | 0.00 | 0.00 | 49 | 1014.7 |
| 20260509163100 | 53 | 327 | 1.0 | 5.0 | 0.00 | 0.00 | 0.00 | 46 | 1014.7 |
| 20260509162823 | 54 | 292 | 1.0 | 5.0 | 0.00 | 0.00 | 0.00 | 44 | 1014.7 |
| 20260509162057 | 55 | 188 | 0.0 | 3.0 | 0.00 | 0.00 | 0.00 | 42 | 1014.7 |
| 20260509161558 | 55 | 230 | 0.0 | 0.0 | 0.00 | 0.00 | 0.00 | 39 | 1014.5 |
| 20260509161058 | 55 | 227 | 0.0 | 0.0 | 0.00 | 0.00 | 0.00 | 36 | 1014.6 |
| 20260509160553 | 56 | 169 | 0.0 | 0.0 | 0.00 | 0.00 | 0.00 | 34 | 1014.6 |
| 20260509160051 | 56 | 202 | 0.0 | 0.0 | 0.00 | 0.00 | 0.00 | 31 | 1014.5 |
| 20260509155816 | 57 | 213 | 0.0 | 0.0 | 0.00 | 0.00 | 0.00 | 29 | 1014.4 |
| 20260509155052 | 57 | 192 | 0.0 | 0.0 | 0.00 | 0.00 | 0.00 | 29 | 1014.2 |
| 20260509154551 | 57 | 142 | 0.0 | 0.0 | 0.00 | 0.00 | 0.00 | 28 | 1014.4 |
| 20260509154050 | 58 | 196 | 0.0 | 0.0 | 0.00 | 0.00 | 0.00 | 29 | 1014.3 |
| 20260509153551 | 58 | 184 | 0.0 | 0.0 | 0.00 | 0.00 | 0.00 | 28 | 1014.2 |
| 20260509153045 | 58 | 157 | 0.0 | 0.0 | 0.00 | 0.00 | 0.00 | 28 | 1014.2 |
| 20260509152539 | 58 | 155 | 0.0 | 0.0 | 0.00 | 0.00 | 0.00 | 28 | 1014.3 |
| 20260509152033 | 57 | 156 | 0.0 | 0.0 | 0.00 | 0.00 | 0.00 | 29 | 1014.2 |
| 20260509151527 | 57 | 130 | 0.0 | 0.0 | 0.00 | 0.00 | 0.00 | 28 | 1014.2 |
| 20260509151242 | 58 | 110 | 0.0 | 0.0 | 0.00 | 0.00 | 0.00 | 28 | 1014.1 |
| 20260509150741 | 58 | 186 | 0.0 | 0.0 | 0.00 | 0.00 | 0.00 | 28 | 1014.2 |
| 20260509150009 | 58 | 112 | 0.0 | 0.0 | 0.00 | 0.00 | 0.00 | 27 | 1014.1 |
| 20260509150001 | 58 | 102 | 0.0 | 0.0 | 0.00 | 0.00 | 0.00 | 27 | 1014.0 |
| 20260509145226 | 58 | 159 | 0.0 | 0.0 | 0.00 | 0.00 | 0.00 | 28 | 1014.0 |
| 20260509144503 | 58 | 225 | 0.0 | 0.0 | 0.00 | 0.00 | 0.00 | 27 | 1014.1 |
| 20260509144003 | 59 | 214 | 0.0 | 0.0 | 0.00 | 0.00 | 0.00 | 26 | 1014.1 |
| 20260509143502 | 59 | 190 | 0.0 | 0.0 | 0.00 | 0.00 | 0.00 | 28 | 1014.0 |
| 20260509143225 | 59 | 186 | 0.0 | 0.0 | 0.00 | 0.00 | 0.00 | 27 | 1013.9 |
| 20260509142503 | 59 | 181 | 0.0 | 0.0 | 0.00 | 0.00 | 0.00 | 26 | 1013.8 |
| 20260509142004 | 58 | 140 | 0.0 | 0.0 | 0.00 | 0.00 | 0.00 | 27 | 1013.8 |
| 20260509141504 | 58 | 166 | 0.0 | 0.0 | 0.00 | 0.00 | 0.00 | 29 | 1013.9 |
| 20260509141005 | 58 | 65 | 0.0 | 0.0 | 0.00 | 0.00 | 0.00 | 28 | 1013.8 |
| 20260509140459 | 58 | 56 | 0.0 | 0.0 | 0.00 | 0.00 | 0.00 | 30 | 1014.0 |
| 20260509135957 | 57 | 195 | 0.0 | 0.0 | 0.00 | 0.00 | 0.00 | 32 | 1014.0 |
| 20260509135457 | 56 | 98 | 0.0 | 0.0 | 0.00 | 0.00 | 0.00 | 30 | 1013.9 |
| 20260509134958 | 56 | 96 | 0.0 | 0.0 | 0.00 | 0.00 | 0.00 | 31 | 1014.0 |
| 20260509134458 | 55 | 55 | 0.0 | 0.0 | 0.00 | 0.00 | 0.00 | 35 | 1014.0 |
| 20260509133958 | 55 | 92 | 0.0 | 0.0 | 0.00 | 0.00 | 0.00 | 39 | 1014.1 |
| 20260509133458 | 55 | 121 | 0.0 | 3.0 | 0.00 | 0.00 | 0.00 | 42 | 1014.2 |
| 20260509132958 | 54 | 138 | 1.0 | 3.0 | 0.00 | 0.00 | 0.00 | 42 | 1014.1 |
| 20260509132500 | 54 | 101 | 2.0 | 4.0 | 0.00 | 0.00 | 0.00 | 43 | 1014.0 |
| 20260509131958 | 53 | 101 | 2.0 | 4.0 | 0.00 | 0.00 | 0.00 | 45 | 1014.1 |
| 20260509131457 | 52 | 97 | 1.0 | 4.0 | 0.00 | 0.00 | 0.00 | 47 | 1014.3 |
| 20260509130958 | 52 | 69 | 1.0 | 3.0 | 0.00 | 0.00 | 0.00 | 51 | 1014.3 |
| 20260509130457 | 51 | 69 | 1.0 | 3.0 | 0.00 | 0.00 | 0.00 | 52 | 1014.3 |
| 20260509125958 | 51 | 69 | 1.0 | 3.0 | 0.00 | 0.00 | 0.00 | 53 | 1014.3 |
| 20260509125458 | 50 | 69 | 1.0 | 2.0 | 0.00 | 0.00 | 0.00 | 53 | 1014.3 |
| 20260509124957 | 50 | 73 | 1.0 | 3.0 | 0.00 | 0.00 | 0.00 | 54 | 1014.4 |
| 20260509124722 | 50 | 70 | 1.0 | 3.0 | 0.00 | 0.00 | 0.00 | 54 | 1014.5 |
| 20260509123957 | 50 | 70 | 2.0 | 3.0 | 0.00 | 0.00 | 0.00 | 53 | 1014.5 |
| 20260509123452 | 50 | 60 | 1.0 | 3.0 | 0.00 | 0.00 | 0.00 | 54 | 1014.5 |
| 20260509122946 | 50 | 58 | 1.0 | 3.0 | 0.00 | 0.00 | 0.00 | 55 | 1014.5 |
| 20260509122440 | 49 | 198 | 0.0 | 3.0 | 0.00 | 0.00 | 0.00 | 54 | 1014.5 |
| 20260509121934 | 49 | 198 | 0.0 | 0.0 | 0.00 | 0.00 | 0.00 | 57 | 1014.5 |
| 20260509121658 | 47 | 198 | 0.0 | 0.0 | 0.00 | 0.00 | 0.00 | 57 | 1014.6 |
| 20260509121141 | 47 | 198 | 0.0 | 2.0 | 0.00 | 0.00 | 0.00 | 54 | 1014.7 |
| 20260509120854 | 46 | 198 | 0.0 | 2.0 | 0.00 | 0.00 | 0.00 | 54 | 1014.7 |
| 20260509120134 | 45 | 198 | 0.0 | 1.0 | 0.00 | 0.00 | 0.00 | 57 | 1014.6 |
| 20260509115404 | 44 | 198 | 0.0 | 0.0 | 0.00 | 0.00 | 0.00 | 57 | 1014.6 |
| 20260509114858 | 43 | 82 | 0.0 | 0.0 | 0.00 | 0.00 | 0.00 | 58 | 1014.7 |
| 20260509114352 | 42 | 82 | 0.0 | 0.0 | 0.00 | 0.00 | 0.00 | 60 | 1014.7 |
| 20260509113846 | 42 | 43 | 0.0 | 0.0 | 0.00 | 0.00 | 0.00 | 61 | 1014.6 |
| 20260509113340 | 41 | 43 | 0.0 | 0.0 | 0.00 | 0.00 | 0.00 | 62 | 1014.6 |
| 20260509112835 | 40 | 43 | 0.0 | 0.0 | 0.00 | 0.00 | 0.00 | 63 | 1014.8 |
| 20260509112328 | 39 | 43 | 0.0 | 0.0 | 0.00 | 0.00 | 0.00 | 64 | 1014.8 |
| 20260509111822 | 39 | 43 | 0.0 | 0.0 | 0.00 | 0.00 | 0.00 | 65 | 1014.8 |
| 20260509111316 | 38 | 43 | 0.0 | 0.0 | 0.00 | 0.00 | 0.00 | 66 | 1014.7 |
| 20260509110810 | 38 | 43 | 0.0 | 0.0 | 0.00 | 0.00 | 0.00 | 67 | 1014.7 |
| 20260509110304 | 37 | 43 | 0.0 | 0.0 | 0.00 | 0.00 | 0.00 | 68 | 1014.6 |
| 20260509105758 | 36 | 43 | 0.0 | 0.0 | 0.00 | 0.00 | 0.00 | 68 | 1014.5 |
| 20260509105514 | 36 | 43 | 0.0 | 0.0 | 0.00 | 0.00 | 0.00 | 69 | 1014.5 |
| 20260509104746 | 35 | 43 | 0.0 | 0.0 | 0.00 | 0.00 | 0.00 | 69 | 1014.5 |
| 20260509104240 | 35 | 43 | 0.0 | 0.0 | 0.00 | 0.00 | 0.00 | 69 | 1014.4 |
| 20260509103956 | 34 | 43 | 0.0 | 0.0 | 0.00 | 0.00 | 0.00 | 69 | 1014.4 |
| 20260509103228 | 34 | 43 | 0.0 | 0.0 | 0.00 | 0.00 | 0.00 | 69 | 1014.3 |
| 20260509102722 | 34 | 43 | 0.0 | 0.0 | 0.00 | 0.00 | 0.00 | 69 | 1014.3 |
| 20260509102216 | 33 | 43 | 0.0 | 0.0 | 0.00 | 0.00 | 0.00 | 69 | 1014.2 |
| 20260509102156 | 33 | 43 | 0.0 | 0.0 | 0.00 | 0.00 | 0.00 | 69 | 1014.1 |
| 20260509101204 | 33 | 43 | 0.0 | 0.0 | 0.00 | 0.00 | 0.00 | 69 | 1014.0 |
| 20260509100659 | 33 | 43 | 0.0 | 0.0 | 0.00 | 0.00 | 0.00 | 68 | 1014.1 |
| 20260509100152 | 33 | 43 | 0.0 | 0.0 | 0.00 | 0.00 | 0.00 | 68 | 1014.0 |
| 20260509095646 | 33 | 43 | 0.0 | 0.0 | 0.00 | 0.00 | 0.00 | 68 | 1014.0 |
| 20260509095140 | 33 | 43 | 0.0 | 0.0 | 0.00 | 0.00 | 0.00 | 67 | 1013.9 |
| 20260509094634 | 33 | 43 | 0.0 | 0.0 | 0.00 | 0.00 | 0.00 | 67 | 1013.9 |
| 20260509094607 | 33 | 43 | 0.0 | 0.0 | 0.00 | 0.00 | 0.00 | 67 | 1013.5 |
| 20260509093846 | 33 | 43 | 0.0 | 0.0 | 0.00 | 0.00 | 0.00 | 67 | 1013.6 |
| 20260509093555 | 33 | 43 | 0.0 | 0.0 | 0.00 | 0.00 | 0.00 | 67 | 1013.5 |
| 20260509092610 | 33 | 43 | 0.0 | 0.0 | 0.00 | 0.00 | 0.00 | 67 | 1013.4 |
| 20260509092104 | 33 | 43 | 0.0 | 0.0 | 0.00 | 0.00 | 0.00 | 66 | 1013.3 |
| 20260509091558 | 34 | 43 | 0.0 | 0.0 | 0.00 | 0.00 | 0.00 | 66 | 1013.4 |
| 20260509091052 | 34 | 43 | 0.0 | 0.0 | 0.00 | 0.00 | 0.00 | 67 | 1013.2 |
| 20260509090546 | 34 | 43 | 0.0 | 0.0 | 0.00 | 0.00 | 0.00 | 67 | 1013.2 |
| 20260509090040 | 34 | 43 | 0.0 | 0.0 | 0.00 | 0.00 | 0.00 | 67 | 1013.2 |
| 20260509085534 | 35 | 43 | 0.0 | 0.0 | 0.00 | 0.00 | 0.00 | 67 | 1013.1 |
| 20260509085028 | 35 | 43 | 0.0 | 0.0 | 0.00 | 0.00 | 0.00 | 67 | 1013.0 |
| 20260509084522 | 35 | 43 | 0.0 | 0.0 | 0.00 | 0.00 | 0.00 | 66 | 1012.9 |
| 20260509084235 | 35 | 43 | 0.0 | 0.0 | 0.00 | 0.00 | 0.00 | 66 | 1013.0 |
| 20260509083510 | 36 | 43 | 0.0 | 0.0 | 0.00 | 0.00 | 0.00 | 66 | 1013.0 |
| 20260509083004 | 36 | 43 | 0.0 | 0.0 | 0.00 | 0.00 | 0.00 | 66 | 1013.2 |
| 20260509082458 | 36 | 43 | 0.0 | 0.0 | 0.00 | 0.00 | 0.00 | 65 | 1013.2 |
| 20260509081952 | 37 | 43 | 0.0 | 0.0 | 0.00 | 0.00 | 0.00 | 65 | 1013.3 |
| 20260509081446 | 37 | 43 | 0.0 | 0.0 | 0.00 | 0.00 | 0.00 | 65 | 1013.3 |
| 20260509080940 | 37 | 43 | 0.0 | 0.0 | 0.00 | 0.00 | 0.00 | 65 | 1013.2 |
| 20260509080434 | 37 | 43 | 0.0 | 0.0 | 0.00 | 0.00 | 0.00 | 66 | 1013.3 |
| 20260509080147 | 37 | 43 | 0.0 | 0.0 | 0.00 | 0.00 | 0.00 | 66 | 1013.4 |
| 20260509075422 | 37 | 43 | 0.0 | 0.0 | 0.00 | 0.00 | 0.00 | 66 | 1013.4 |
| 20260509074916 | 37 | 43 | 0.0 | 0.0 | 0.00 | 0.00 | 0.00 | 66 | 1013.2 |
| 20260509074410 | 38 | 43 | 0.0 | 0.0 | 0.00 | 0.00 | 0.00 | 66 | 1013.2 |
| 20260509074129 | 38 | 43 | 0.0 | 0.0 | 0.00 | 0.00 | 0.00 | 65 | 1013.2 |
| 20260509073407 | 38 | 43 | 0.0 | 0.0 | 0.00 | 0.00 | 0.00 | 65 | 1013.1 |
| 20260509073125 | 38 | 43 | 0.0 | 0.0 | 0.00 | 0.00 | 0.00 | 65 | 1013.2 |
| 20260509072406 | 38 | 43 | 0.0 | 0.0 | 0.00 | 0.00 | 0.00 | 65 | 1013.1 |
| 20260509071905 | 38 | 43 | 0.0 | 0.0 | 0.00 | 0.00 | 0.00 | 66 | 1013.2 |
| 20260509071404 | 38 | 43 | 0.0 | 0.0 | 0.00 | 0.00 | 0.00 | 66 | 1013.0 |
| 20260509070901 | 38 | 43 | 0.0 | 0.0 | 0.00 | 0.00 | 0.00 | 66 | 1013.1 |
| 20260509070401 | 38 | 43 | 0.0 | 0.0 | 0.00 | 0.00 | 0.00 | 66 | 1013.0 |
| 20260509065901 | 38 | 43 | 0.0 | 0.0 | 0.00 | 0.00 | 0.00 | 65 | 1013.0 |
| 20260509065359 | 38 | 43 | 0.0 | 0.0 | 0.00 | 0.00 | 0.00 | 65 | 1013.0 |
| 20260509065120 | 38 | 43 | 0.0 | 0.0 | 0.00 | 0.00 | 0.00 | 65 | 1012.9 |
| 20260509064355 | 38 | 43 | 0.0 | 0.0 | 0.00 | 0.00 | 0.00 | 65 | 1012.9 |
| 20260509063853 | 38 | 43 | 0.0 | 0.0 | 0.00 | 0.00 | 0.00 | 65 | 1012.9 |
| 20260509063352 | 38 | 43 | 0.0 | 0.0 | 0.00 | 0.00 | 0.00 | 64 | 1012.9 |
| 20260509062849 | 38 | 43 | 0.0 | 0.0 | 0.00 | 0.00 | 0.00 | 64 | 1012.9 |
| 20260509062609 | 38 | 43 | 0.0 | 0.0 | 0.00 | 0.00 | 0.00 | 64 | 1012.8 |
| 20260509061844 | 38 | 43 | 0.0 | 0.0 | 0.00 | 0.00 | 0.00 | 64 | 1012.8 |
| 20260509061344 | 39 | 43 | 0.0 | 0.0 | 0.00 | 0.00 | 0.00 | 64 | 1012.8 |
| 20260509060843 | 39 | 43 | 0.0 | 0.0 | 0.00 | 0.00 | 0.00 | 65 | 1012.7 |
| 20260509060344 | 39 | 43 | 0.0 | 0.0 | 0.00 | 0.00 | 0.00 | 65 | 1012.8 |
| 20260509055844 | 39 | 43 | 0.0 | 0.0 | 0.00 | 0.00 | 0.00 | 64 | 1012.7 |
| 20260509055338 | 39 | 43 | 0.0 | 0.0 | 0.00 | 0.00 | 0.00 | 64 | 1012.7 |
| 20260509054832 | 39 | 43 | 0.0 | 0.0 | 0.00 | 0.00 | 0.00 | 64 | 1012.7 |
| 20260509054552 | 40 | 43 | 0.0 | 0.0 | 0.00 | 0.00 | 0.00 | 63 | 1012.6 |
| 20260509053820 | 40 | 43 | 0.0 | 0.0 | 0.00 | 0.00 | 0.00 | 62 | 1012.7 |
| 20260509053317 | 40 | 43 | 0.0 | 0.0 | 0.00 | 0.00 | 0.00 | 63 | 1012.7 |
| 20260509053041 | 40 | 43 | 0.0 | 0.0 | 0.00 | 0.00 | 0.00 | 62 | 1012.7 |
| 20260509052316 | 40 | 43 | 0.0 | 0.0 | 0.00 | 0.00 | 0.00 | 60 | 1012.7 |
| 20260509051813 | 40 | 43 | 0.0 | 0.0 | 0.00 | 0.00 | 0.00 | 61 | 1012.6 |
| 20260509051311 | 40 | 43 | 0.0 | 0.0 | 0.00 | 0.00 | 0.00 | 61 | 1012.6 |
| 20260509050809 | 40 | 43 | 0.0 | 0.0 | 0.00 | 0.00 | 0.00 | 60 | 1012.7 |
| 20260509050352 | 41 | 43 | 0.0 | 0.0 | 0.00 | 0.00 | 0.00 | 62 | 1012.7 |
| 20260509045306 | 41 | 43 | 0.0 | 0.0 | 0.00 | 0.00 | 0.00 | 63 | 1012.8 |
| 20260509044802 | 41 | 43 | 0.0 | 0.0 | 0.00 | 0.00 | 0.00 | 62 | 1012.8 |
| 20260509044300 | 41 | 43 | 0.0 | 0.0 | 0.00 | 0.00 | 0.00 | 62 | 1012.7 |
| 20260509043757 | 41 | 43 | 0.0 | 0.0 | 0.00 | 0.00 | 0.00 | 63 | 1012.9 |
| 20260509043256 | 41 | 43 | 0.0 | 1.0 | 0.00 | 0.00 | 0.00 | 63 | 1012.9 |
| 20260509042754 | 41 | 43 | 0.0 | 1.0 | 0.00 | 0.00 | 0.00 | 62 | 1012.8 |
| 20260509042252 | 41 | 43 | 0.0 | 1.0 | 0.00 | 0.00 | 0.00 | 63 | 1012.8 |
| 20260509041750 | 41 | 43 | 0.0 | 1.0 | 0.00 | 0.00 | 0.00 | 63 | 1012.8 |
| 20260509041249 | 41 | 43 | 0.0 | 1.0 | 0.00 | 0.00 | 0.00 | 63 | 1012.7 |
| 20260509040746 | 41 | 43 | 0.0 | 1.0 | 0.00 | 0.00 | 0.00 | 64 | 1012.7 |
| 20260509040504 | 41 | 43 | 0.0 | 1.0 | 0.00 | 0.00 | 0.00 | 64 | 1012.5 |
| 20260509040010 | 41 | 43 | 0.0 | 1.0 | 0.00 | 0.00 | 0.00 | 64 | 1012.4 |
| 20260509035242 | 41 | 43 | 0.0 | 1.0 | 0.00 | 0.00 | 0.00 | 64 | 1012.3 |
| 20260509034736 | 41 | 43 | 0.0 | 1.0 | 0.00 | 0.00 | 0.00 | 64 | 1012.3 |
| 20260509034726 | 41 | 43 | 0.0 | 1.0 | 0.00 | 0.00 | 0.00 | 63 | 1012.3 |
| 20260509033725 | 40 | 43 | 0.0 | 1.0 | 0.00 | 0.00 | 0.00 | 64 | 1012.3 |
| 20260509033218 | 40 | 43 | 0.0 | 1.0 | 0.00 | 0.00 | 0.00 | 64 | 1012.2 |
| 20260509032713 | 40 | 43 | 0.0 | 1.0 | 0.00 | 0.00 | 0.00 | 63 | 1012.2 |
| 20260509032206 | 40 | 43 | 0.0 | 0.0 | 0.00 | 0.00 | 0.00 | 63 | 1012.1 |
| 20260509031700 | 40 | 43 | 0.0 | 0.0 | 0.00 | 0.00 | 0.00 | 62 | 1012.0 |
| 20260509031157 | 40 | 43 | 0.0 | 0.0 | 0.00 | 0.00 | 0.00 | 62 | 1012.0 |
| 20260509030657 | 40 | 43 | 0.0 | 0.0 | 0.00 | 0.00 | 0.00 | 63 | 1011.9 |
| 20260509030156 | 40 | 43 | 0.0 | 0.0 | 0.00 | 0.00 | 0.00 | 63 | 1011.8 |
| 20260509025653 | 40 | 43 | 0.0 | 0.0 | 0.00 | 0.00 | 0.00 | 62 | 1011.8 |
| 20260509025152 | 39 | 43 | 0.0 | 0.0 | 0.00 | 0.00 | 0.00 | 60 | 1011.8 |
| 20260509024649 | 39 | 43 | 0.0 | 0.0 | 0.00 | 0.00 | 0.00 | 61 | 1011.8 |
| 20260509024148 | 39 | 43 | 0.0 | 1.0 | 0.00 | 0.00 | 0.00 | 61 | 1011.8 |
| 20260509023645 | 39 | 43 | 0.0 | 1.0 | 0.00 | 0.00 | 0.00 | 61 | 1011.8 |
| 20260509023145 | 39 | 43 | 0.0 | 0.0 | 0.00 | 0.00 | 0.00 | 60 | 1011.7 |
| 20260509022645 | 39 | 43 | 0.0 | 0.0 | 0.00 | 0.00 | 0.00 | 60 | 1011.8 |
| 20260509022144 | 39 | 43 | 0.0 | 0.0 | 0.00 | 0.00 | 0.00 | 61 | 1011.7 |
| 20260509021642 | 40 | 43 | 0.0 | 0.0 | 0.00 | 0.00 | 0.00 | 61 | 1011.5 |
| 20260509021141 | 40 | 43 | 0.0 | 0.0 | 0.00 | 0.00 | 0.00 | 60 | 1011.4 |
| 20260509020642 | 40 | 43 | 0.0 | 0.0 | 0.00 | 0.00 | 0.00 | 59 | 1011.3 |
| 20260509020139 | 40 | 43 | 0.0 | 0.0 | 0.00 | 0.00 | 0.00 | 58 | 1011.2 |
| 20260509015640 | 40 | 43 | 0.0 | 0.0 | 0.00 | 0.00 | 0.00 | 58 | 1011.1 |
| 20260509015138 | 40 | 43 | 0.0 | 0.0 | 0.00 | 0.00 | 0.00 | 58 | 1011.0 |
| 20260509014856 | 41 | 43 | 0.0 | 0.0 | 0.00 | 0.00 | 0.00 | 58 | 1010.9 |
| 20260509014133 | 41 | 43 | 0.0 | 1.0 | 0.00 | 0.00 | 0.00 | 57 | 1010.9 |
| 20260509013632 | 41 | 43 | 0.0 | 1.0 | 0.00 | 0.00 | 0.00 | 55 | 1010.8 |
| 20260509013127 | 41 | 43 | 0.0 | 1.0 | 0.00 | 0.00 | 0.00 | 54 | 1010.7 |
| 20260509012628 | 42 | 43 | 0.0 | 0.0 | 0.00 | 0.00 | 0.00 | 52 | 1010.6 |
| 20260509012128 | 42 | 43 | 0.0 | 0.0 | 0.00 | 0.00 | 0.00 | 52 | 1010.5 |
| 20260509011628 | 42 | 43 | 0.0 | 1.0 | 0.00 | 0.00 | 0.00 | 52 | 1010.5 |
| 20260509011127 | 42 | 43 | 0.0 | 1.0 | 0.00 | 0.00 | 0.00 | 50 | 1010.5 |
| 20260509010627 | 42 | 43 | 0.0 | 1.0 | 0.00 | 0.00 | 0.00 | 50 | 1010.4 |
| 20260509010127 | 43 | 43 | 0.0 | 0.0 | 0.00 | 0.00 | 0.00 | 50 | 1010.4 |
| 20260509005626 | 43 | 43 | 0.0 | 0.0 | 0.00 | 0.00 | 0.00 | 50 | 1010.2 |
| 20260509005128 | 44 | 43 | 0.0 | 0.0 | 0.00 | 0.00 | 0.00 | 49 | 1010.2 |
| 20260509004624 | 44 | 43 | 0.0 | 0.0 | 0.00 | 0.00 | 0.00 | 48 | 1010.0 |
| 20260509004122 | 44 | 43 | 0.0 | 0.0 | 0.00 | 0.00 | 0.00 | 47 | 1010.0 |
| 20260509003623 | 45 | 43 | 0.0 | 0.0 | 0.00 | 0.00 | 0.00 | 46 | 1010.0 |
| 20260509003124 | 46 | 43 | 0.0 | 0.0 | 0.00 | 0.00 | 0.00 | 47 | 1009.9 |
| 20260509002622 | 46 | 43 | 0.0 | 0.0 | 0.00 | 0.00 | 0.00 | 45 | 1009.8 |
| 20260509002122 | 47 | 43 | 0.0 | 0.0 | 0.00 | 0.00 | 0.00 | 44 | 1009.8 |
| 20260509001624 | 48 | 43 | 0.0 | 0.0 | 0.00 | 0.00 | 0.00 | 43 | 1009.7 |
| 20260509001123 | 48 | 43 | 0.0 | 0.0 | 0.00 | 0.00 | 0.00 | 41 | 1009.6 |
| 20260509000624 | 49 | 43 | 0.0 | 0.0 | 0.00 | 0.00 | 0.00 | 41 | 1009.6 |